Wetterdaten: Woche 08.06.15 - 14.06.15 (KW24)
Datum Zeit Temp. A. Feuchte A. Luftdruck Regen Wind Richtung Taupunkt Windchill Windben
08.06.2015 00:00 18,8 C 80 % 1020,5 hPa 0,0 l/m 0,2 km/h N 15,1 C 18,8 C 2,4 km/h
08.06.2015 01:00 18,1 C 81 % 1020,3 hPa 0,0 l/m 0,1 km/h N 14,7 C 18,1 C 1,2 km/h
08.06.2015 02:00 17,4 C 81 % 1019,9 hPa 0,0 l/m 0,1 km/h N 14,2 C 17,4 C 0,8 km/h
08.06.2015 03:00 16,5 C 82 % 1019,8 hPa 0,0 l/m 0,0 km/h N 13,4 C 16,5 C 0,0 km/h
08.06.2015 04:00 15,6 C 82 % 1019,8 hPa 0,0 l/m 0,0 km/h N 12,4 C 15,6 C 0,0 km/h
08.06.2015 05:00 15,2 C 81 % 1019,8 hPa 0,0 l/m 0,0 km/h N 12,0 C 15,2 C 0,0 km/h
08.06.2015 06:00 15,7 C 79 % 1019,9 hPa 0,0 l/m 0,0 km/h N 12,2 C 15,7 C 0,0 km/h
08.06.2015 07:00 17,8 C 78 % 1019,4 hPa 0,0 l/m 0,1 km/h N 13,8 C 17,8 C 2,8 km/h
08.06.2015 08:00 21,6 C 76 % 1019,2 hPa 0,0 l/m 0,6 km/h N 17,2 C 21,6 C 5,6 km/h
08.06.2015 09:00 24,6 C 66 % 1018,8 hPa 0,0 l/m 0,6 km/h N 17,8 C 24,6 C 6,4 km/h
08.06.2015 10:00 26,5 C 60 % 1018,5 hPa 0,0 l/m 1,1 km/h N 17,9 C 26,5 C 7,6 km/h
08.06.2015 11:00 28,1 C 51 % 1018,0 hPa 0,0 l/m 1,8 km/h N 17,0 C 28,1 C 9,7 km/h
08.06.2015 12:00 29,5 C 44 % 1017,5 hPa 0,0 l/m 2,0 km/h N 15,9 C 29,5 C 9,3 km/h
08.06.2015 13:00 29,9 C 43 % 1016,8 hPa 0,0 l/m 2,1 km/h N 15,8 C 29,9 C 10,1 km/h
08.06.2015 14:00 30,1 C 44 % 1016,1 hPa 0,0 l/m 2,1 km/h N 16,4 C 30,1 C 12,5 km/h
08.06.2015 15:00 29,8 C 42 % 1015,7 hPa 0,0 l/m 2,1 km/h N 15,4 C 29,8 C 15,3 km/h
08.06.2015 16:00 28,9 C 43 % 1015,1 hPa 0,0 l/m 1,9 km/h N 15,1 C 28,9 C 12,9 km/h
08.06.2015 17:00 29,0 C 41 % 1014,4 hPa 0,0 l/m 1,5 km/h N 14,5 C 29,0 C 8,0 km/h
08.06.2015 18:00 28,9 C 40 % 1014,2 hPa 0,0 l/m 0,6 km/h N 14,0 C 28,9 C 6,4 km/h
08.06.2015 19:00 27,9 C 47 % 1014,0 hPa 0,0 l/m 0,3 km/h N 15,4 C 27,9 C 5,2 km/h
08.06.2015 20:00 25,4 C 58 % 1014,2 hPa 0,0 l/m 1,6 km/h N 16,5 C 25,4 C 6,8 km/h
08.06.2015 21:00 23,7 C 65 % 1014,5 hPa 0,0 l/m 1,8 km/h N 16,6 C 23,7 C 11,3 km/h
08.06.2015 22:00 22,1 C 70 % 1015,0 hPa 0,0 l/m 1,2 km/h N 16,4 C 22,1 C 7,2 km/h
08.06.2015 23:00 20,5 C 73 % 1015,7 hPa 0,0 l/m 2,5 km/h N 15,5 C 20,5 C 9,3 km/h
09.06.2015 00:00 19,8 C 75 % 1015,8 hPa 0,0 l/m 1,5 km/h N 15,1 C 19,8 C 8,5 km/h
09.06.2015 01:00 18,8 C 77 % 1016,1 hPa 0,0 l/m 0,5 km/h N 14,7 C 18,8 C 4,0 km/h
09.06.2015 02:00 18,2 C 77 % 1016,5 hPa 0,0 l/m 3,6 km/h N 14,2 C 18,2 C 10,4 km/h
09.06.2015 03:00 18,1 C 75 % 1016,8 hPa 0,0 l/m 6,9 km/h N 13,5 C 17,8 C 19,7 km/h
09.06.2015 04:00 17,5 C 72 % 1016,6 hPa 0,0 l/m 7,3 km/h N 12,4 C 17,1 C 19,7 km/h
09.06.2015 05:00 16,8 C 73 % 1016,7 hPa 0,0 l/m 3,8 km/h N 11,9 C 16,8 C 12,5 km/h
09.06.2015 06:00 16,9 C 73 % 1017,1 hPa 0,0 l/m 2,4 km/h N 11,9 C 16,9 C 9,3 km/h
09.06.2015 07:00 17,6 C 70 % 1017,6 hPa 0,0 l/m 5,8 km/h N 12,2 C 17,5 C 20,1 km/h
09.06.2015 08:00 18,3 C 67 % 1017,8 hPa 0,0 l/m 7,8 km/h N 12,1 C 17,7 C 18,9 km/h
09.06.2015 09:00 18,9 C 67 % 1017,7 hPa 0,0 l/m 7,5 km/h N 12,6 C 18,3 C 18,5 km/h
09.06.2015 10:00 20,9 C 65 % 1017,8 hPa 0,0 l/m 7,3 km/h N 13,9 C 20,5 C 17,3 km/h
09.06.2015 11:00 22,0 C 62 % 1017,8 hPa 0,0 l/m 7,9 km/h N 14,4 C 21,5 C 20,1 km/h
09.06.2015 12:00 22,2 C 64 % 1017,7 hPa 0,0 l/m 7,0 km/h N 15,0 C 22,0 C 19,7 km/h
09.06.2015 13:00 23,2 C 61 % 1017,6 hPa 0,0 l/m 8,7 km/h N 15,3 C 22,5 C 21,7 km/h
09.06.2015 14:00 24,1 C 60 % 1017,4 hPa 0,0 l/m 8,4 km/h N 15,8 C 23,5 C 23,3 km/h
09.06.2015 15:00 24,2 C 60 % 1017,1 hPa 0,0 l/m 8,8 km/h N 15,9 C 23,6 C 20,5 km/h
09.06.2015 16:00 24,3 C 58 % 1017,1 hPa 0,0 l/m 9,6 km/h N 15,5 C 23,4 C 24,9 km/h
09.06.2015 17:00 23,7 C 61 % 1017,3 hPa 0,0 l/m 10,6 km/h N 15,6 C 22,6 C 24,1 km/h
09.06.2015 18:00 22,5 C 64 % 1017,7 hPa 0,0 l/m 11,1 km/h N 15,3 C 21,1 C 24,9 km/h
09.06.2015 19:00 20,8 C 68 % 1018,7 hPa 0,0 l/m 8,6 km/h N 14,6 C 20,0 C 23,3 km/h
09.06.2015 20:00 19,2 C 72 % 1019,6 hPa 0,0 l/m 8,6 km/h N 13,9 C 18,3 C 22,9 km/h
09.06.2015 21:00 18,1 C 73 % 1020,6 hPa 0,0 l/m 7,1 km/h N 13,2 C 17,8 C 20,9 km/h
09.06.2015 22:00 17,4 C 74 % 1021,1 hPa 0,0 l/m 7,1 km/h N 12,7 C 17,0 C 19,7 km/h
09.06.2015 23:00 17,0 C 75 % 1021,7 hPa 0,0 l/m 5,6 km/h N 12,6 C 17,0 C 17,3 km/h
10.06.2015 00:00 16,5 C 76 % 1021,6 hPa 0,0 l/m 5,3 km/h N 12,2 C 16,5 C 16,1 km/h
10.06.2015 01:00 15,7 C 77 % 1021,4 hPa 0,0 l/m 5,1 km/h N 11,7 C 15,7 C 16,5 km/h
10.06.2015 02:00 15,1 C 78 % 1021,8 hPa 0,0 l/m 2,7 km/h N 11,3 C 15,1 C 12,5 km/h
10.06.2015 03:00 14,6 C 78 % 1021,3 hPa 0,0 l/m 4,4 km/h N 10,9 C 14,6 C 16,1 km/h
10.06.2015 04:00 14,1 C 78 % 1021,3 hPa 0,0 l/m 4,7 km/h N 10,3 C 14,1 C 17,3 km/h
10.06.2015 05:00 13,7 C 78 % 1021,8 hPa 0,0 l/m 1,6 km/h N 9,9 C 13,7 C 9,7 km/h
10.06.2015 06:00 13,8 C 78 % 1022,3 hPa 0,0 l/m 3,6 km/h N 10,0 C 13,8 C 12,4 km/h
10.06.2015 07:00 14,7 C 76 % 1022,8 hPa 0,0 l/m 7,6 km/h N 10,5 C 14,0 C 17,7 km/h
10.06.2015 08:00 15,8 C 75 % 1022,7 hPa 0,0 l/m 7,5 km/h N 11,2 C 15,1 C 20,9 km/h
10.06.2015 09:00 17,2 C 72 % 1022,3 hPa 0,0 l/m 6,9 km/h N 12,1 C 17,0 C 16,9 km/h
10.06.2015 10:00 18,4 C 70 % 1021,9 hPa 0,0 l/m 7,0 km/h N 12,8 C 18,1 C 18,5 km/h
10.06.2015 11:00 19,6 C 68 % 1021,6 hPa 0,0 l/m 6,7 km/h N 13,5 C 19,4 C 19,3 km/h
10.06.2015 12:00 20,8 C 66 % 1021,3 hPa 0,0 l/m 6,3 km/h N 14,2 C 20,6 C 16,5 km/h
10.06.2015 13:00 22,1 C 64 % 1020,7 hPa 0,0 l/m 5,0 km/h N 15,0 C 22,1 C 17,3 km/h
10.06.2015 14:00 23,5 C 61 % 1020,0 hPa 0,0 l/m 4,9 km/h N 15,4 C 23,5 C 17,7 km/h
10.06.2015 15:00 24,4 C 58 % 1019,5 hPa 0,0 l/m 3,7 km/h N 15,5 C 24,4 C 12,5 km/h
10.06.2015 16:00 24,8 C 55 % 1019,1 hPa 0,0 l/m 4,3 km/h N 15,2 C 24,8 C 15,3 km/h
10.06.2015 17:00 25,4 C 53 % 1018,5 hPa 0,0 l/m 3,3 km/h N 14,9 C 25,4 C 12,5 km/h
10.06.2015 18:00 25,3 C 52 % 1018,3 hPa 0,0 l/m 3,9 km/h N 14,8 C 25,3 C 12,1 km/h
10.06.2015 19:00 24,5 C 54 % 1018,4 hPa 0,0 l/m 3,6 km/h N 14,7 C 24,5 C 13,3 km/h
10.06.2015 20:00 23,0 C 59 % 1018,7 hPa 0,0 l/m 3,8 km/h N 14,4 C 23,0 C 14,1 km/h
10.06.2015 21:00 21,4 C 62 % 1019,5 hPa 0,0 l/m 3,6 km/h N 13,9 C 21,4 C 13,3 km/h
10.06.2015 22:00 20,1 C 66 % 1020,1 hPa 0,0 l/m 2,0 km/h N 13,6 C 20,1 C 10,5 km/h
10.06.2015 23:00 19,0 C 67 % 1020,4 hPa 0,0 l/m 2,6 km/h N 12,8 C 19,0 C 11,3 km/h
11.06.2015 00:00 18,1 C 71 % 1020,6 hPa 0,0 l/m 0,8 km/h N 12,6 C 18,1 C 6,0 km/h
11.06.2015 01:00 16,9 C 74 % 1020,5 hPa 0,0 l/m 0,9 km/h N 12,3 C 16,9 C 5,6 km/h
11.06.2015 02:00 16,3 C 76 % 1020,2 hPa 0,0 l/m 1,2 km/h N 12,0 C 16,3 C 6,8 km/h
11.06.2015 03:00 15,8 C 76 % 1019,9 hPa 0,0 l/m 0,9 km/h N 11,5 C 15,8 C 8,0 km/h
11.06.2015 04:00 15,4 C 76 % 1019,8 hPa 0,0 l/m 0,6 km/h N 11,3 C 15,4 C 4,8 km/h
11.06.2015 05:00 14,9 C 78 % 1019,8 hPa 0,0 l/m 1,1 km/h N 11,1 C 14,9 C 6,4 km/h
11.06.2015 06:00 15,5 C 76 % 1019,7 hPa 0,0 l/m 2,6 km/h N 11,4 C 15,5 C 9,3 km/h
11.06.2015 07:00 16,5 C 75 % 1019,6 hPa 0,0 l/m 2,6 km/h N 12,0 C 16,5 C 11,3 km/h
11.06.2015 08:00 18,1 C 71 % 1019,7 hPa 0,0 l/m 3,7 km/h N 12,7 C 18,1 C 10,1 km/h
11.06.2015 09:00 20,0 C 68 % 1019,4 hPa 0,0 l/m 3,6 km/h N 13,8 C 20,0 C 11,3 km/h
11.06.2015 10:00 21,6 C 63 % 1019,1 hPa 0,0 l/m 3,9 km/h N 14,3 C 21,6 C 10,5 km/h
11.06.2015 11:00 23,2 C 60 % 1018,8 hPa 0,0 l/m 3,8 km/h N 15,0 C 23,2 C 10,5 km/h
11.06.2015 12:00 24,6 C 56 % 1018,3 hPa 0,0 l/m 2,4 km/h N 15,3 C 24,6 C 10,0 km/h
11.06.2015 13:00 26,4 C 51 % 1017,7 hPa 0,0 l/m 1,5 km/h N 15,5 C 26,4 C 8,0 km/h
11.06.2015 14:00 27,5 C 50 % 1017,0 hPa 0,0 l/m 1,1 km/h N 16,0 C 27,5 C 7,6 km/h
11.06.2015 15:00 27,7 C 50 % 1016,3 hPa 0,0 l/m 1,4 km/h N 16,2 C 27,7 C 8,0 km/h
11.06.2015 16:00 26,9 C 53 % 1015,5 hPa 0,0 l/m 1,1 km/h N 16,4 C 26,9 C 7,2 km/h
11.06.2015 17:00 27,3 C 52 % 1015,0 hPa 0,0 l/m 0,6 km/h N 16,4 C 27,3 C 6,0 km/h
11.06.2015 18:00 26,7 C 54 % 1014,8 hPa 0,0 l/m 0,2 km/h N 16,6 C 26,7 C 4,8 km/h
11.06.2015 19:00 25,5 C 58 % 1014,8 hPa 0,0 l/m 0,2 km/h N 16,7 C 25,5 C 2,4 km/h
11.06.2015 20:00 24,7 C 61 % 1015,0 hPa 0,0 l/m 0,1 km/h N 16,6 C 24,7 C 2,8 km/h
11.06.2015 21:00 23,4 C 65 % 1015,2 hPa 0,0 l/m 0,0 km/h N 16,5 C 23,4 C 0,0 km/h
11.06.2015 22:00 21,3 C 72 % 1015,2 hPa 0,0 l/m 0,0 km/h N 16,0 C 21,3 C 0,0 km/h
11.06.2015 23:00 19,7 C 77 % 1015,2 hPa 0,0 l/m 0,0 km/h N 15,5 C 19,7 C 0,8 km/h
12.06.2015 00:00 18,6 C 79 % 1015,0 hPa 0,0 l/m 0,0 km/h N 14,9 C 18,6 C 0,0 km/h
12.06.2015 01:00 17,7 C 81 % 1014,6 hPa 0,0 l/m 0,0 km/h N 14,3 C 17,7 C 0,0 km/h
12.06.2015 02:00 16,8 C 82 % 1014,2 hPa 0,0 l/m 0,0 km/h N 13,7 C 16,8 C 0,0 km/h
12.06.2015 03:00 16,1 C 82 % 1014,1 hPa 0,0 l/m 0,0 km/h N 13,0 C 16,1 C 0,0 km/h
12.06.2015 04:00 15,6 C 81 % 1014,0 hPa 0,0 l/m 0,0 km/h N 12,4 C 15,6 C 0,0 km/h
12.06.2015 05:00 15,3 C 80 % 1013,8 hPa 0,0 l/m 0,0 km/h N 11,9 C 15,3 C 0,0 km/h
12.06.2015 06:00 16,4 C 78 % 1013,5 hPa 0,0 l/m 0,0 km/h N 12,5 C 16,4 C 0,4 km/h
12.06.2015 07:00 18,5 C 78 % 1013,4 hPa 0,0 l/m 0,5 km/h N 14,5 C 18,5 C 4,8 km/h
12.06.2015 08:00 22,8 C 77 % 1013,2 hPa 0,0 l/m 0,6 km/h N 18,5 C 22,8 C 5,6 km/h
12.06.2015 09:00 26,6 C 65 % 1012,8 hPa 0,0 l/m 1,6 km/h N 19,5 C 26,6 C 8,0 km/h
12.06.2015 10:00 28,6 C 57 % 1012,2 hPa 0,0 l/m 6,1 km/h N 19,1 C 28,6 C 18,9 km/h
12.06.2015 11:00 30,1 C 47 % 1011,8 hPa 0,0 l/m 9,1 km/h N 17,5 C 29,8 C 25,0 km/h
12.06.2015 12:00 31,2 C 43 % 1011,5 hPa 0,0 l/m 9,5 km/h N 17,1 C 31,1 C 24,9 km/h
12.06.2015 13:00 31,8 C 42 % 1011,1 hPa 0,0 l/m 9,7 km/h N 17,1 C 31,6 C 28,1 km/h
12.06.2015 14:00 32,1 C 39 % 1010,6 hPa 0,0 l/m 9,1 km/h N 16,5 C 32,1 C 22,9 km/h
12.06.2015 15:00 31,8 C 39 % 1010,2 hPa 0,0 l/m 8,9 km/h N 15,9 C 31,7 C 22,1 km/h
12.06.2015 16:00 31,2 C 40 % 1009,8 hPa 0,0 l/m 8,1 km/h N 15,7 C 31,1 C 24,9 km/h
12.06.2015 17:00 31,0 C 39 % 1009,3 hPa 0,0 l/m 7,8 km/h N 15,5 C 30,9 C 22,5 km/h
12.06.2015 18:00 30,9 C 39 % 1008,8 hPa 0,0 l/m 6,8 km/h N 15,1 C 30,8 C 20,1 km/h
12.06.2015 19:00 29,9 C 42 % 1008,5 hPa 0,0 l/m 6,3 km/h N 15,4 C 29,9 C 20,1 km/h
12.06.2015 20:00 28,4 C 47 % 1008,3 hPa 0,0 l/m 4,1 km/h N 15,8 C 28,4 C 14,5 km/h
12.06.2015 21:00 26,5 C 52 % 1008,9 hPa 0,0 l/m 2,0 km/h N 15,9 C 26,5 C 9,7 km/h
12.06.2015 22:00 24,6 C 60 % 1009,2 hPa 0,0 l/m 0,0 km/h N 16,2 C 24,6 C 0,0 km/h
12.06.2015 23:00 22,7 C 66 % 1009,0 hPa 0,0 l/m 0,2 km/h N 16,1 C 22,7 C 3,2 km/h
13.06.2015 00:00 21,9 C 70 % 1008,8 hPa 0,0 l/m 0,1 km/h N 16,2 C 21,9 C 2,4 km/h
13.06.2015 01:00 20,3 C 75 % 1008,7 hPa 0,0 l/m 0,0 km/h N 15,6 C 20,3 C 0,0 km/h
13.06.2015 02:00 18,6 C 78 % 1008,3 hPa 0,0 l/m 0,0 km/h N 14,7 C 18,6 C 0,0 km/h
13.06.2015 03:00 17,5 C 81 % 1008,4 hPa 0,0 l/m 0,0 km/h N 14,1 C 17,5 C 0,0 km/h
13.06.2015 04:00 16,7 C 81 % 1008,3 hPa 0,0 l/m 0,0 km/h N 13,5 C 16,7 C 0,0 km/h
13.06.2015 05:00 16,2 C 81 % 1008,4 hPa 0,0 l/m 0,0 km/h N 13,0 C 16,2 C 0,0 km/h
13.06.2015 06:00 16,9 C 80 % 1008,4 hPa 0,0 l/m 0,1 km/h N 13,4 C 16,9 C 1,6 km/h
13.06.2015 07:00 18,9 C 81 % 1008,7 hPa 0,0 l/m 0,4 km/h N 15,5 C 18,9 C 3,2 km/h
13.06.2015 08:00 22,3 C 74 % 1008,8 hPa 0,0 l/m 1,0 km/h N 17,5 C 22,3 C 6,8 km/h
13.06.2015 09:00 25,5 C 66 % 1008,9 hPa 0,0 l/m 0,8 km/h N 18,8 C 25,5 C 6,4 km/h
13.06.2015 10:00 26,7 C 62 % 1008,8 hPa 0,0 l/m 1,4 km/h N 18,7 C 26,7 C 8,0 km/h
13.06.2015 11:00 27,5 C 59 % 1008,9 hPa 0,0 l/m 1,8 km/h N 18,6 C 27,5 C 8,0 km/h
13.06.2015 12:00 28,6 C 54 % 1008,6 hPa 0,0 l/m 1,2 km/h N 18,3 C 28,6 C 8,4 km/h
13.06.2015 13:00 30,4 C 50 % 1008,4 hPa 0,0 l/m 1,2 km/h N 18,6 C 30,4 C 8,8 km/h
13.06.2015 14:00 30,9 C 48 % 1008,1 hPa 0,0 l/m 0,9 km/h N 18,6 C 30,9 C 7,2 km/h
13.06.2015 15:00 29,7 C 49 % 1008,0 hPa 0,0 l/m 0,1 km/h N 17,9 C 29,7 C 2,8 km/h
13.06.2015 16:00 28,2 C 59 % 1008,5 hPa 0,0 l/m 0,1 km/h N 19,3 C 28,2 C 2,1 km/h
13.06.2015 17:00 26,4 C 69 % 1007,0 hPa 0,0 l/m 0,0 km/h N 20,2 C 26,4 C 4,8 km/h
13.06.2015 18:00 27,0 C 58 % 1007,5 hPa 0,0 l/m 0,8 km/h N 18,0 C 27,0 C 10,5 km/h
13.06.2015 19:00 25,0 C 58 % 1008,9 hPa 0,0 l/m 2,4 km/h N 16,1 C 25,0 C 18,5 km/h
13.06.2015 20:00 21,3 C 72 % 1008,6 hPa 1,0 l/m 2,4 km/h N 16,0 C 21,3 C 9,7 km/h
13.06.2015 21:00 19,8 C 76 % 1008,8 hPa 0,0 l/m 0,0 km/h N 15,4 C 19,8 C 8,1 km/h
13.06.2015 22:00 19,5 C 76 % 1009,8 hPa 0,0 l/m 0,8 km/h N 15,0 C 19,5 C 7,2 km/h
13.06.2015 23:00 18,5 C 79 % 1010,3 hPa 0,0 l/m 0,0 km/h N 14,7 C 18,5 C 7,2 km/h
14.06.2015 00:00 17,7 C 79 % 1010,3 hPa 0,0 l/m 0,0 km/h N 14,0 C 17,7 C 4,8 km/h
14.06.2015 01:00 17,3 C 80 % 1009,9 hPa 0,0 l/m 0,0 km/h N 13,7 C 17,3 C 4,8 km/h
14.06.2015 02:00 16,5 C 81 % 1009,8 hPa 0,0 l/m 0,0 km/h N 13,2 C 16,5 C 3,2 km/h
14.06.2015 03:00 16,4 C 81 % 1009,7 hPa 0,0 l/m 0,0 km/h N 13,1 C 16,4 C 3,2 km/h
14.06.2015 04:00 16,2 C 81 % 1009,8 hPa 0,0 l/m 0,0 km/h N 12,9 C 16,2 C 4,8 km/h
14.06.2015 05:00 16,5 C 82 % 1009,9 hPa 0,0 l/m 0,4 km/h N 13,3 C 16,5 C 2,4 km/h
14.06.2015 06:00 17,0 C 82 % 1009,9 hPa 0,0 l/m 0,0 km/h N 13,9 C 17,0 C 1,2 km/h
14.06.2015 07:00 18,3 C 81 % 1010,2 hPa 0,0 l/m 0,3 km/h N 15,1 C 18,3 C 3,2 km/h
14.06.2015 08:00 21,6 C 75 % 1010,3 hPa 0,0 l/m 0,1 km/h N 17,0 C 21,6 C 2,8 km/h
14.06.2015 09:00 25,5 C 65 % 1010,1 hPa 0,0 l/m 0,5 km/h N 18,3 C 25,5 C 4,8 km/h
14.06.2015 10:00 27,2 C 59 % 1010,0 hPa 0,0 l/m 1,0 km/h N 18,5 C 27,2 C 6,8 km/h
14.06.2015 11:00 28,5 C 52 % 1009,6 hPa 0,0 l/m 2,0 km/h N 17,5 C 28,5 C 9,6 km/h
14.06.2015 12:00 30,2 C 46 % 1009,2 hPa 0,0 l/m 3,3 km/h N 17,3 C 30,2 C 15,3 km/h
14.06.2015 13:00 31,1 C 45 % 1008,6 hPa 0,0 l/m 4,3 km/h N 17,5 C 31,1 C 14,5 km/h
14.06.2015 14:00 30,8 C 44 % 1007,9 hPa 0,0 l/m 2,9 km/h N 16,9 C 30,8 C 13,7 km/h
14.06.2015 15:00 28,3 C 55 % 1007,6 hPa 0,0 l/m 1,0 km/h N 18,4 C 28,3 C 10,5 km/h
14.06.2015 16:00 26,5 C 63 % 1007,2 hPa 0,0 l/m 1,1 km/h N 18,8 C 26,5 C 8,9 km/h
14.06.2015 17:00 22,0 C 72 % 1008,2 hPa 5,5 l/m 2,2 km/h N 16,5 C 22,0 C 9,3 km/h
14.06.2015 18:00 19,3 C 81 % 1007,7 hPa 3,9 l/m 0,9 km/h N 15,9 C 19,3 C 6,8 km/h
14.06.2015 19:00 19,0 C 80 % 1006,8 hPa 0,3 l/m 0,1 km/h N 15,4 C 19,0 C 1,6 km/h
14.06.2015 20:00 19,1 C 79 % 1006,3 hPa 0,0 l/m 0,0 km/h N 15,4 C 19,1 C 0,0 km/h
14.06.2015 21:00 18,4 C 80 % 1006,4 hPa 0,0 l/m 0,0 km/h N 14,8 C 18,4 C 0,0 km/h
14.06.2015 22:00 18,2 C 79 % 1006,7 hPa 0,0 l/m 0,0 km/h N 14,4 C 18,2 C 0,0 km/h
14.06.2015 23:00 18,3 C 78 % 1006,6 hPa 0,0 l/m 0,0 km/h N 14,3 C 18,3 C 0,0 km/h
Min-Datum _ 10.06.15 12.06.15 14.06.15 - 08.06.15 - 10.06.15 10.06.15 08.06.15
_ Min-Zeit 05:30 14:30 23:45 - 00:00 - 05:30 07:30 00:00
Minimum _ 13,6 C 38 % 1006,1 hPa - 0,0 km/h - 9,8 C 13,5 C 0,0 km/h
Max-Datum _ 12.06.15 08.06.15 10.06.15 14.06.15 09.06.15 - 13.06.15 12.06.15 12.06.15
_ Max-Zeit 14:30 02:30 07:45 17:15 17:00 - 17:00 14:30 13:30
Maximum _ 32,4 C 82 % 1022,9 hPa 5,5 l/m 12,0 km/h
N
- 20,5 C 32,3 C 37,0 km/h
N
Durchschnitt _ 22,0 C 66 % 1014,7 hPa #10,7 l/m 2,7 km/h N 14,9 C 21,9 C 9,8 km/h